Time,TemperatureF,DewpointF,PressureIn,WindDirection,WindDirectionDegrees,WindSpeedMPH,WindSpeedGustMPH,Humidity,HourlyPrecipIn,Conditions,Clouds,dailyrainin,SoftwareType,DateUTC
2013-08-07 00:09:00,55.2,54.0,29.89,ENE,74,3.0,3.0,94,0.00,,,0.00,weatherlink.com 1.10,2013-08-06 11:09:00,
2013-08-07 00:24:00,54.9,54.0,29.89,ENE,71,2.0,3.0,95,0.00,,,0.00,weatherlink.com 1.10,2013-08-06 11:24:00,
2013-08-07 00:39:00,54.8,54.0,29.89,ENE,58,2.0,4.0,96,0.00,,,0.00,weatherlink.com 1.10,2013-08-06 11:39:00,
2013-08-07 00:54:00,54.7,54.0,29.89,ENE,78,0.0,2.0,96,0.00,,,0.00,weatherlink.com 1.10,2013-08-06 11:54:00,
2013-08-07 01:09:00,54.1,53.0,29.90,ENE,78,0.0,2.0,95,0.00,,,0.00,weatherlink.com 1.10,2013-08-06 12:09:00,
2013-08-07 01:24:00,53.6,52.0,29.90,ENE,69,1.0,3.0,95,0.00,,,0.00,weatherlink.com 1.10,2013-08-06 12:24:00,
2013-08-07 01:39:00,53.7,53.0,29.90,ENE,76,2.0,3.0,97,0.00,,,0.00,weatherlink.com 1.10,2013-08-06 12:39:00,
2013-08-07 01:54:00,53.5,52.0,29.90,ENE,76,0.0,2.0,96,0.00,,,0.00,weatherlink.com 1.10,2013-08-06 12:54:00,
2013-08-07 02:09:00,52.9,52.0,29.91,ENE,76,0.0,2.0,96,0.00,,,0.00,weatherlink.com 1.10,2013-08-06 13:09:00,
2013-08-07 02:24:00,52.7,52.0,29.91,ENE,70,1.0,3.0,96,0.00,,,0.00,weatherlink.com 1.10,2013-08-06 13:24:00,
2013-08-07 02:39:00,53.2,52.0,29.91,ENE,70,0.0,2.0,97,0.00,,,0.00,weatherlink.com 1.10,2013-08-06 13:39:00,
2013-08-07 02:54:00,53.2,52.0,29.91,ENE,70,1.0,2.0,97,0.00,,,0.00,weatherlink.com 1.10,2013-08-06 13:54:00,
2013-08-07 03:09:00,53.5,53.0,29.92,ENE,70,1.0,3.0,97,0.00,,,0.00,weatherlink.com 1.10,2013-08-06 14:09:00,
2013-08-07 03:24:00,55.3,55.0,29.92,ENE,70,1.0,2.0,98,0.00,,,0.00,weatherlink.com 1.10,2013-08-06 14:24:00,
2013-08-07 03:39:00,57.5,57.0,29.93,ENE,70,0.0,1.0,98,0.00,,,0.00,weatherlink.com 1.10,2013-08-06 14:39:00,
2013-08-07 03:54:00,59.6,59.0,29.93,ENE,70,0.0,1.0,98,0.00,,,0.00,weatherlink.com 1.10,2013-08-06 14:54:00,
2013-08-07 04:09:00,60.5,60.0,29.93,ENE,70,0.0,1.0,98,0.00,,,0.00,weatherlink.com 1.10,2013-08-06 15:09:00,
2013-08-07 04:24:00,61.8,60.0,29.93,ENE,70,0.0,1.0,93,0.00,,,0.00,weatherlink.com 1.10,2013-08-06 15:24:00,
2013-08-07 04:39:00,63.7,60.0,29.93,NE,46,0.0,2.0,88,0.00,,,0.00,weatherlink.com 1.10,2013-08-06 15:39:00,
2013-08-07 04:54:00,65.7,62.0,29.93,WNW,298,0.0,2.0,86,0.00,,,0.00,weatherlink.com 1.10,2013-08-06 15:54:00,
2013-08-07 05:09:00,67.1,63.0,29.93,WNW,298,1.0,2.0,85,0.00,,,0.00,weatherlink.com 1.10,2013-08-06 16:09:00,
2013-08-07 05:24:00,69.2,63.0,29.92,NNW,338,1.0,2.0,81,0.00,,,0.00,weatherlink.com 1.10,2013-08-06 16:24:00,
2013-08-07 05:40:00,71.3,63.0,29.92,ENE,71,2.0,4.0,76,0.00,,,0.00,weatherlink.com 1.10,2013-08-06 16:40:00,
2013-08-07 05:55:00,73.0,63.0,29.91,ESE,107,1.0,5.0,72,0.00,,,0.00,weatherlink.com 1.10,2013-08-06 16:55:00,
2013-08-07 06:10:00,74.4,63.0,29.91,East,91,2.0,7.0,68,0.00,,,0.00,weatherlink.com 1.10,2013-08-06 17:10:00,
2013-08-07 06:25:00,75.8,64.0,29.91,ENE,61,0.0,6.0,66,0.00,,,0.00,weatherlink.com 1.10,2013-08-06 17:25:00,
2013-08-07 06:40:00,77.1,63.0,29.91,NNE,13,1.0,5.0,63,0.00,,,0.00,weatherlink.com 1.10,2013-08-06 17:40:00,
2013-08-07 06:55:00,78.5,65.0,29.90,East,82,0.0,7.0,63,0.00,,,0.00,weatherlink.com 1.10,2013-08-06 17:55:00,
2013-08-07 07:10:00,80.5,64.0,29.89,East,95,3.0,5.0,57,0.00,,,0.00,weatherlink.com 1.10,2013-08-06 18:10:00,
2013-08-07 07:25:00,82.3,67.0,29.89,ESE,107,1.0,3.0,61,0.00,,,0.00,weatherlink.com 1.10,2013-08-06 18:25:00,
2013-08-07 07:40:00,83.5,65.0,29.89,ENE,76,3.0,4.0,53,0.00,,,0.00,weatherlink.com 1.10,2013-08-06 18:40:00,
2013-08-07 07:55:00,84.6,63.0,29.89,East,82,2.0,7.0,48,0.00,,,0.00,weatherlink.com 1.10,2013-08-06 18:55:00,
2013-08-07 08:10:00,85.4,63.0,29.89,ESE,111,4.0,5.0,48,0.00,,,0.00,weatherlink.com 1.10,2013-08-06 19:10:00,
2013-08-07 08:25:00,86.2,62.0,29.88,ENE,73,1.0,7.0,44,0.00,,,0.00,weatherlink.com 1.10,2013-08-06 19:25:00,
2013-08-07 08:40:00,86.5,61.0,29.88,NE,47,6.0,8.0,43,0.00,,,0.00,weatherlink.com 1.10,2013-08-06 19:40:00,
2013-08-07 08:55:00,87.5,57.0,29.87,West,259,1.0,8.0,36,0.00,,,0.00,weatherlink.com 1.10,2013-08-06 19:55:00,
2013-08-07 09:10:00,88.4,57.0,29.88,WNW,293,7.0,10.0,35,0.00,,,0.00,weatherlink.com 1.10,2013-08-06 20:10:00,
2013-08-07 09:25:00,88.3,58.0,29.87,West,265,3.0,12.0,36,0.00,,,0.00,weatherlink.com 1.10,2013-08-06 20:25:00,
2013-08-07 09:40:00,88.3,57.0,29.87,WSW,247,4.0,9.0,35,0.00,,,0.00,weatherlink.com 1.10,2013-08-06 20:40:00,
2013-08-07 09:55:00,89.1,57.0,29.86,WSW,250,5.0,10.0,34,0.00,,,0.00,weatherlink.com 1.10,2013-08-06 20:55:00,
2013-08-07 10:11:00,89.6,60.0,29.86,SSW,209,4.0,11.0,37,0.00,,,0.00,weatherlink.com 1.10,2013-08-06 21:11:00,
2013-08-07 10:26:00,89.8,56.0,29.85,NW,309,2.0,11.0,32,0.00,,,0.00,weatherlink.com 1.10,2013-08-06 21:26:00,
2013-08-07 10:41:00,90.4,56.0,29.85,WSW,258,4.0,12.0,31,0.00,,,0.00,weatherlink.com 1.10,2013-08-06 21:41:00,
2013-08-07 10:56:00,90.2,53.0,29.85,WNW,294,8.0,13.0,28,0.00,,,0.00,weatherlink.com 1.10,2013-08-06 21:56:00,
2013-08-07 11:11:00,90.5,57.0,29.84,SW,215,1.0,13.0,32,0.00,,,0.00,weatherlink.com 1.10,2013-08-06 22:11:00,
2013-08-07 11:26:00,90.5,54.0,29.84,SW,221,6.0,14.0,29,0.00,,,0.00,weatherlink.com 1.10,2013-08-06 22:26:00,
2013-08-07 11:41:00,90.6,56.0,29.84,NNW,327,6.0,14.0,31,0.00,,,0.00,weatherlink.com 1.10,2013-08-06 22:41:00,
2013-08-07 11:56:00,91.0,57.0,29.83,WSW,241,2.0,9.0,32,0.00,,,0.00,weatherlink.com 1.10,2013-08-06 22:56:00,
2013-08-07 12:11:00,90.8,54.0,29.83,SW,230,4.0,10.0,29,0.00,,,0.00,weatherlink.com 1.10,2013-08-06 23:11:00,
2013-08-07 12:26:00,90.6,54.0,29.83,WSW,253,3.0,9.0,29,0.00,,,0.00,weatherlink.com 1.10,2013-08-06 23:26:00,
2013-08-07 12:41:00,90.8,56.0,29.83,SW,233,2.0,7.0,31,0.00,,,0.00,weatherlink.com 1.10,2013-08-06 23:41:00,
2013-08-07 12:56:00,90.6,54.0,29.83,WSW,245,2.0,12.0,29,0.00,,,0.00,weatherlink.com 1.10,2013-08-06 23:56:00,
2013-08-07 13:11:00,89.9,54.0,29.83,WNW,284,2.0,12.0,29,0.00,,,0.00,weatherlink.com 1.10,2013-08-07 00:11:00,
2013-08-07 13:26:00,89.7,52.0,29.82,NW,319,6.0,8.0,28,0.00,,,0.00,weatherlink.com 1.10,2013-08-07 00:26:00,
2013-08-07 13:41:00,89.6,51.0,29.82,West,274,1.0,11.0,27,0.00,,,0.00,weatherlink.com 1.10,2013-08-07 00:41:00,
2013-08-07 13:56:00,89.0,56.0,29.82,SW,222,5.0,10.0,32,0.00,,,0.00,weatherlink.com 1.10,2013-08-07 00:56:00,
2013-08-07 14:11:00,87.3,53.0,29.82,SW,227,1.0,7.0,31,0.00,,,0.00,weatherlink.com 1.10,2013-08-07 01:11:00,
2013-08-07 14:26:00,85.6,58.0,29.82,SW,221,3.0,6.0,39,0.00,,,0.00,weatherlink.com 1.10,2013-08-07 01:26:00,
2013-08-07 14:41:00,84.3,58.0,29.81,WSW,248,3.0,4.0,41,0.00,,,0.00,weatherlink.com 1.10,2013-08-07 01:41:00,
2013-08-07 14:56:00,83.2,55.0,29.81,West,263,4.0,6.0,38,0.00,,,0.00,weatherlink.com 1.10,2013-08-07 01:56:00,
2013-08-07 15:11:00,82.5,54.0,29.81,SW,236,2.0,5.0,38,0.00,,,0.00,weatherlink.com 1.10,2013-08-07 02:11:00,
2013-08-07 15:26:00,81.2,64.0,29.81,WSW,245,0.0,4.0,56,0.00,,,0.00,weatherlink.com 1.10,2013-08-07 02:26:00,
2013-08-07 15:41:00,77.3,63.0,29.81,NE,40,1.0,3.0,61,0.00,,,0.00,weatherlink.com 1.10,2013-08-07 02:41:00,
2013-08-07 15:56:00,73.1,63.0,29.82,ENE,74,1.0,3.0,70,0.00,,,0.00,weatherlink.com 1.10,2013-08-07 02:56:00,
2013-08-07 16:11:00,69.9,61.0,29.82,East,82,3.0,3.0,74,0.00,,,0.00,weatherlink.com 1.10,2013-08-07 03:11:00,
2013-08-07 16:26:00,67.6,59.0,29.82,ENE,76,0.0,2.0,74,0.00,,,0.00,weatherlink.com 1.10,2013-08-07 03:26:00,
2013-08-07 16:41:00,65.4,58.0,29.82,ENE,76,1.0,2.0,78,0.00,,,0.00,weatherlink.com 1.10,2013-08-07 03:41:00,
2013-08-07 16:56:00,63.4,56.0,29.84,ENE,71,1.0,3.0,77,0.00,,,0.00,weatherlink.com 1.10,2013-08-07 03:56:00,
2013-08-07 17:11:00,62.8,55.0,29.84,East,86,2.0,4.0,76,0.00,,,0.00,weatherlink.com 1.10,2013-08-07 04:11:00,
2013-08-07 17:26:00,62.3,54.0,29.85,ENE,58,4.0,4.0,74,0.00,,,0.00,weatherlink.com 1.10,2013-08-07 04:26:00,
2013-08-07 17:41:00,62.1,55.0,29.85,East,85,3.0,4.0,77,0.00,,,0.00,weatherlink.com 1.10,2013-08-07 04:41:00,
2013-08-07 17:56:00,61.0,54.0,29.85,ENE,78,2.0,5.0,78,0.00,,,0.00,weatherlink.com 1.10,2013-08-07 04:56:00,
2013-08-07 18:11:00,60.5,54.0,29.86,East,82,3.0,5.0,78,0.00,,,0.00,weatherlink.com 1.10,2013-08-07 05:11:00,
2013-08-07 18:26:00,60.1,52.0,29.86,ENE,71,2.0,5.0,75,0.00,,,0.00,weatherlink.com 1.10,2013-08-07 05:26:00,
2013-08-07 18:41:00,59.9,53.0,29.86,East,84,3.0,4.0,77,0.00,,,0.00,weatherlink.com 1.10,2013-08-07 05:41:00,
2013-08-07 18:56:00,59.1,52.0,29.87,East,91,1.0,4.0,78,0.00,,,0.00,weatherlink.com 1.10,2013-08-07 05:56:00,
2013-08-07 19:11:00,58.5,51.0,29.87,East,82,2.0,4.0,77,0.00,,,0.00,weatherlink.com 1.10,2013-08-07 06:11:00,
2013-08-07 19:26:00,58.2,52.0,29.87,East,84,1.0,4.0,80,0.00,,,0.00,weatherlink.com 1.10,2013-08-07 06:26:00,
2013-08-07 19:41:00,57.3,52.0,29.87,East,94,3.0,4.0,82,0.00,,,0.00,weatherlink.com 1.10,2013-08-07 06:41:00,
2013-08-07 19:56:00,56.9,51.0,29.87,East,84,3.0,4.0,81,0.00,,,0.00,weatherlink.com 1.10,2013-08-07 06:56:00,
2013-08-07 20:11:00,56.3,51.0,29.87,ENE,75,2.0,3.0,81,0.00,,,0.00,weatherlink.com 1.10,2013-08-07 07:11:00,
2013-08-07 20:26:00,55.6,50.0,29.87,ENE,61,2.0,4.0,81,0.00,,,0.00,weatherlink.com 1.10,2013-08-07 07:26:00,
2013-08-07 20:42:00,55.1,50.0,29.88,ENE,76,2.0,4.0,84,0.00,,,0.00,weatherlink.com 1.10,2013-08-07 07:42:00,
2013-08-07 20:57:00,54.6,49.0,29.88,East,79,2.0,4.0,80,0.00,,,0.00,weatherlink.com 1.10,2013-08-07 07:57:00,
2013-08-07 21:12:00,54.5,49.0,29.88,ENE,62,1.0,2.0,83,0.00,,,0.00,weatherlink.com 1.10,2013-08-07 08:12:00,
2013-08-07 21:27:00,53.3,49.0,29.88,ENE,74,2.0,3.0,85,0.00,,,0.00,weatherlink.com 1.10,2013-08-07 08:27:00,
2013-08-07 21:42:00,53.0,48.0,29.88,East,92,2.0,4.0,84,0.00,,,0.00,weatherlink.com 1.10,2013-08-07 08:42:00,
2013-08-07 21:57:00,53.2,48.0,29.88,ENE,70,3.0,5.0,82,0.00,,,0.00,weatherlink.com 1.10,2013-08-07 08:57:00,
2013-08-07 22:12:00,53.2,48.0,29.88,ENE,72,3.0,3.0,83,0.00,,,0.00,weatherlink.com 1.10,2013-08-07 09:12:00,
2013-08-07 22:27:00,52.3,48.0,29.88,East,82,3.0,5.0,86,0.00,,,0.00,weatherlink.com 1.10,2013-08-07 09:27:00,
2013-08-07 22:42:00,51.7,48.0,29.88,East,84,2.0,4.0,88,0.00,,,0.00,weatherlink.com 1.10,2013-08-07 09:42:00,
2013-08-07 22:57:00,51.5,48.0,29.88,East,90,0.0,3.0,89,0.00,,,0.00,weatherlink.com 1.10,2013-08-07 09:57:00,
2013-08-07 23:12:00,51.0,48.0,29.89,East,90,0.0,2.0,89,0.00,,,0.00,weatherlink.com 1.10,2013-08-07 10:12:00,
2013-08-07 23:27:00,50.3,48.0,29.89,East,85,3.0,4.0,91,0.00,,,0.00,weatherlink.com 1.10,2013-08-07 10:27:00,
2013-08-07 23:42:00,50.6,49.0,29.88,ENE,77,2.0,4.0,93,0.00,,,0.00,weatherlink.com 1.10,2013-08-07 10:42:00,
2013-08-07 23:57:00,50.6,49.0,29.88,East,80,1.0,3.0,93,0.00,,,0.00,weatherlink.com 1.10,2013-08-07 10:57:00,